Time;durP1;ratioP1;P1;durP2;ratioP2;P2;SDS_P1;SDS_P2;PMS_P1;PMS_P2;Temp;Humidity;BMP_temperature;BMP_pressure;BME280_temperature;BME280_humidity;BME280_pressure;Samples;Min_cycle;Max_cycle;Signal;HPM_P1;HPM_P2
2023/02/12 00:01:28;;;;;;;;;37.00;32.75;;;;;;;;5042758;28;12266;-81
2023/02/12 00:03:56;;;;;;;;;41.25;36.25;;;;;;;;5051340;28;11484;-81
2023/02/12 00:06:23;;;;;;;;;35.25;34.50;;;;;;;;5046070;28;12338;-81
2023/02/12 00:08:52;;;;;;;;;51.00;38.75;;;;;;;;5045748;28;11498;-80
2023/02/12 00:11:21;;;;;;;;;38.75;35.00;;;;;;;;5043950;28;11622;-81
2023/02/12 00:13:49;;;;;;;;;43.00;37.25;;;;;;;;5049209;28;11487;-80
2023/02/12 00:16:19;;;;;;;;;39.75;36.25;;;;;;;;5049031;28;11609;-81
2023/02/12 00:18:48;;;;;;;;;33.00;28.50;;;;;;;;5046014;28;11499;-84
2023/02/12 00:21:16;;;;;;;;;40.75;35.75;;;;;;;;5048832;28;11522;-81
2023/02/12 00:23:43;;;;;;;;;32.25;30.50;;;;;;;;5047593;28;11664;-81
2023/02/12 00:26:12;;;;;;;;;41.25;34.75;;;;;;;;5045963;28;12405;-81
2023/02/12 00:28:40;;;;;;;;;49.50;40.50;;;;;;;;5045095;28;11596;-81
2023/02/12 00:31:08;;;;;;;;;50.50;43.25;;;;;;;;5042799;28;11446;-81
2023/02/12 00:33:35;;;;;;;;;54.00;43.25;;;;;;;;5049588;28;11574;-82
2023/02/12 00:36:05;;;;;;;;;61.00;48.25;;;;;;;;5045168;28;11649;-82
2023/02/12 00:38:33;;;;;;;;;56.75;42.00;;;;;;;;5042199;28;12320;-81
2023/02/12 00:41:01;;;;;;;;;56.50;46.00;;;;;;;;5042840;28;11671;-81
2023/02/12 00:43:28;;;;;;;;;47.00;39.75;;;;;;;;5048682;28;11552;-81
2023/02/12 00:45:56;;;;;;;;;52.00;42.50;;;;;;;;5045547;28;11610;-80
2023/02/12 00:48:23;;;;;;;;;53.50;45.75;;;;;;;;5049355;28;11689;-81
2023/02/12 00:50:50;;;;;;;;;55.25;46.00;;;;;;;;5048123;28;12325;-81
2023/02/12 00:53:19;;;;;;;;;56.00;45.25;;;;;;;;5047176;28;11556;-80
2023/02/12 00:55:47;;;;;;;;;55.00;44.50;;;;;;;;5040075;28;11640;-81
2023/02/12 00:58:15;;;;;;;;;66.00;49.50;;;;;;;;5042709;28;11709;-84
2023/02/12 01:00:42;;;;;;;;;54.75;43.00;;;;;;;;5044741;28;11485;-81
2023/02/12 01:03:11;;;;;;;;;54.00;44.00;;;;;;;;5040692;28;11562;-81
2023/02/12 01:05:38;;;;;;;;;53.25;44.25;;;;;;;;5043084;28;11540;-80
2023/02/12 01:08:06;;;;;;;;;45.50;40.25;;;;;;;;5044983;28;11477;-81
2023/02/12 01:10:34;;;;;;;;;45.00;41.00;;;;;;;;5039388;28;11583;-81
2023/02/12 01:13:02;;;;;;;;;45.25;40.00;;;;;;;;5042447;28;11577;-81
2023/02/12 01:15:29;;;;;;;;;51.25;43.50;;;;;;;;5042241;28;11517;-82
2023/02/12 01:17:56;;;;;;;;;51.25;40.00;;;;;;;;5042319;28;11532;-82
2023/02/12 01:20:25;;;;;;;;;50.75;42.50;;;;;;;;5041591;28;11500;-81
2023/02/12 01:22:52;;;;;;;;;49.25;41.75;;;;;;;;5041402;28;11585;-81
2023/02/12 01:25:20;;;;;;;;;45.00;36.50;;;;;;;;5041308;28;11633;-81
2023/02/12 01:27:49;;;;;;;;;52.75;41.75;;;;;;;;5045152;28;11556;-81
2023/02/12 01:30:20;;;;;;;;;46.25;40.25;;;;;;;;5045390;28;11667;-81
2023/02/12 01:32:48;;;;;;;;;48.00;40.00;;;;;;;;5048140;28;11763;-82
2023/02/12 01:35:15;;;;;;;;;47.25;41.00;;;;;;;;5045842;28;11553;-81
2023/02/12 01:37:43;;;;;;;;;51.50;40.50;;;;;;;;5044152;28;11449;-81
2023/02/12 01:40:14;;;;;;;;;47.50;42.25;;;;;;;;5045510;28;11664;-80
2023/02/12 01:42:41;;;;;;;;;50.75;40.00;;;;;;;;5043048;28;11659;-81
2023/02/12 01:45:44;;;;;;;;;45.50;38.00;;;;;;;;5048288;28;11553;-80
2023/02/12 01:48:11;;;;;;;;;54.50;42.50;;;;;;;;5045117;28;11507;-81
2023/02/12 01:50:39;;;;;;;;;47.25;39.25;;;;;;;;5047469;28;11660;-81
2023/02/12 01:53:06;;;;;;;;;46.50;40.50;;;;;;;;5046698;28;11517;-81
2023/02/12 01:55:34;;;;;;;;;48.75;41.75;;;;;;;;5041199;28;11555;-82
2023/02/12 01:58:01;;;;;;;;;43.50;38.75;;;;;;;;5045419;28;11669;-81
2023/02/12 02:00:32;;;;;;;;;42.75;37.75;;;;;;;;5045276;28;11493;-81
2023/02/12 02:03:01;;;;;;;;;47.25;40.25;;;;;;;;5046966;28;11537;-81
2023/02/12 02:05:33;;;;;;;;;51.25;40.75;;;;;;;;5044957;28;11564;-81
2023/02/12 02:08:00;;;;;;;;;40.50;37.50;;;;;;;;5043414;28;12386;-82
2023/02/12 02:10:30;;;;;;;;;35.00;33.75;;;;;;;;5043522;28;11717;-81
2023/02/12 02:15:47;;;;;;;;;50.00;40.00;;;;;;;;5041372;28;11476;-81
2023/02/12 02:18:20;;;;;;;;;44.00;36.25;;;;;;;;5048575;28;11659;-80
2023/02/12 02:21:14;;;;;;;;;51.75;41.50;;;;;;;;5043181;28;11629;-81
2023/02/12 02:24:13;;;;;;;;;45.75;39.00;;;;;;;;5041324;28;11466;-82
2023/02/12 02:27:03;;;;;;;;;41.50;37.00;;;;;;;;5016048;28;11551;-81
2023/02/12 02:29:59;;;;;;;;;46.75;38.50;;;;;;;;5040331;28;11474;-81
2023/02/12 02:32:30;;;;;;;;;41.25;33.00;;;;;;;;5043037;28;11580;-81
2023/02/12 02:35:03;;;;;;;;;50.75;42.00;;;;;;;;5047372;28;11501;-81
2023/02/12 02:37:33;;;;;;;;;39.50;36.75;;;;;;;;5039755;28;11498;-82
2023/02/12 02:40:04;;;;;;;;;43.50;37.75;;;;;;;;5044089;28;11474;-81
2023/02/12 02:42:35;;;;;;;;;48.00;38.50;;;;;;;;5042380;28;11506;-80
2023/02/12 02:45:06;;;;;;;;;45.00;39.50;;;;;;;;5045146;28;11636;-80
2023/02/12 02:47:39;;;;;;;;;39.25;34.75;;;;;;;;5040821;28;11593;-81
2023/02/12 02:50:09;;;;;;;;;37.25;33.00;;;;;;;;5044328;28;11533;-81
2023/02/12 02:52:40;;;;;;;;;33.75;33.25;;;;;;;;5044404;28;11567;-81
2023/02/12 02:55:09;;;;;;;;;37.50;32.75;;;;;;;;5044906;28;11498;-81
2023/02/12 02:57:39;;;;;;;;;46.25;39.50;;;;;;;;5042749;28;11680;-81
2023/02/12 03:00:13;;;;;;;;;40.75;35.50;;;;;;;;5038263;28;11480;-81
2023/02/12 03:02:45;;;;;;;;;42.00;36.75;;;;;;;;5046981;28;11592;-81
2023/02/12 03:05:19;;;;;;;;;36.00;34.25;;;;;;;;5042705;28;11535;-81
2023/02/12 03:07:51;;;;;;;;;37.50;36.75;;;;;;;;5041396;28;11454;-81
2023/02/12 03:10:20;;;;;;;;;39.50;34.50;;;;;;;;5043720;28;11514;-80
2023/02/12 03:12:52;;;;;;;;;38.75;37.25;;;;;;;;5044681;28;11489;-80
2023/02/12 03:15:24;;;;;;;;;46.25;37.75;;;;;;;;5044409;28;11492;-80
2023/02/12 03:17:53;;;;;;;;;32.50;28.50;;;;;;;;5040799;28;12325;-81
2023/02/12 03:20:24;;;;;;;;;33.75;31.75;;;;;;;;5040479;28;11454;-81
2023/02/12 03:22:56;;;;;;;;;40.25;35.50;;;;;;;;5043826;28;11453;-81
2023/02/12 03:25:27;;;;;;;;;39.75;36.00;;;;;;;;5041808;28;11634;-81
2023/02/12 03:27:59;;;;;;;;;37.00;35.25;;;;;;;;5038954;28;11550;-81
2023/02/12 03:30:31;;;;;;;;;32.25;30.00;;;;;;;;5042523;28;11363;-81
2023/02/12 03:33:08;;;;;;;;;42.25;35.25;;;;;;;;5040611;28;11484;-81
2023/02/12 03:35:38;;;;;;;;;37.75;34.00;;;;;;;;5038357;28;11628;-80
2023/02/12 03:38:11;;;;;;;;;40.75;35.50;;;;;;;;5045214;28;11524;-80
2023/02/12 03:40:42;;;;;;;;;34.50;32.75;;;;;;;;5042026;28;11496;-81
2023/02/12 03:43:18;;;;;;;;;44.00;37.25;;;;;;;;5044736;28;11508;-81
2023/02/12 03:45:50;;;;;;;;;37.50;31.75;;;;;;;;5044096;28;11478;-81
2023/02/12 03:48:24;;;;;;;;;33.50;31.00;;;;;;;;5044252;28;11655;-81
2023/02/12 03:50:56;;;;;;;;;40.50;35.25;;;;;;;;5039478;28;11610;-81
2023/02/12 03:53:24;;;;;;;;;43.00;36.50;;;;;;;;5043252;28;11496;-81
2023/02/12 03:55:54;;;;;;;;;37.50;36.00;;;;;;;;5038954;28;11557;-81
2023/02/12 03:58:25;;;;;;;;;41.25;35.25;;;;;;;;5043355;28;11636;-81
2023/02/12 04:00:53;;;;;;;;;38.50;30.50;;;;;;;;5045259;28;11435;-81
2023/02/12 04:03:22;;;;;;;;;30.50;26.50;;;;;;;;5041894;28;11508;-81
2023/02/12 04:05:49;;;;;;;;;33.25;32.00;;;;;;;;5041737;28;11509;-81
2023/02/12 04:08:16;;;;;;;;;33.50;29.75;;;;;;;;5042003;28;11493;-80
2023/02/12 04:10:56;;;;;;;;;28.00;26.50;;;;;;;;5040642;28;11618;-82
2023/02/12 04:13:29;;;;;;;;;39.25;34.75;;;;;;;;5041607;28;12291;-84
2023/02/12 04:16:07;;;;;;;;;30.75;27.50;;;;;;;;5042755;28;11509;-81
2023/02/12 04:18:42;;;;;;;;;33.25;31.25;;;;;;;;5039926;28;11614;-80
2023/02/12 04:21:14;;;;;;;;;31.00;26.75;;;;;;;;5042113;28;11784;-80
2023/02/12 04:23:50;;;;;;;;;31.00;29.00;;;;;;;;5042051;28;11502;-81
2023/02/12 04:26:25;;;;;;;;;30.75;28.25;;;;;;;;5046163;28;13816;-81
2023/02/12 04:29:05;;;;;;;;;31.00;27.25;;;;;;;;5045471;28;11588;-81
2023/02/12 04:31:36;;;;;;;;;32.25;28.50;;;;;;;;5036882;28;11550;-81
2023/02/12 04:34:13;;;;;;;;;33.75;26.00;;;;;;;;5037527;28;11476;-82
2023/02/12 04:36:46;;;;;;;;;38.00;33.00;;;;;;;;5041613;28;11476;-81
2023/02/12 04:39:19;;;;;;;;;40.50;32.00;;;;;;;;5041139;28;11449;-81
2023/02/12 04:41:47;;;;;;;;;39.00;34.25;;;;;;;;5041568;28;11500;-81
2023/02/12 04:44:19;;;;;;;;;31.50;29.25;;;;;;;;5041439;28;11533;-81
2023/02/12 04:46:46;;;;;;;;;41.50;35.25;;;;;;;;5039605;28;11490;-80
2023/02/12 04:49:17;;;;;;;;;42.50;33.75;;;;;;;;5037558;28;11521;-81
2023/02/12 04:51:46;;;;;;;;;42.00;35.25;;;;;;;;5041372;28;11495;-83
2023/02/12 04:54:13;;;;;;;;;45.25;39.75;;;;;;;;5039220;28;11507;-81
2023/02/12 04:56:40;;;;;;;;;34.00;34.00;;;;;;;;5039688;28;11615;-82
2023/02/12 04:59:08;;;;;;;;;36.25;33.75;;;;;;;;5042576;28;12264;-82
2023/02/12 05:01:36;;;;;;;;;38.50;36.00;;;;;;;;5042489;28;11464;-82
2023/02/12 05:04:04;;;;;;;;;38.75;37.25;;;;;;;;5042994;28;11551;-82
2023/02/12 05:06:35;;;;;;;;;40.00;35.25;;;;;;;;5040737;28;11452;-82
2023/02/12 05:09:03;;;;;;;;;43.25;36.00;;;;;;;;5040046;28;11498;-81
2023/02/12 05:11:30;;;;;;;;;40.00;37.75;;;;;;;;5043494;28;11483;-80
2023/02/12 05:13:58;;;;;;;;;31.50;29.25;;;;;;;;5039734;28;11560;-81
2023/02/12 05:16:25;;;;;;;;;35.25;34.75;;;;;;;;5041479;28;11473;-82
2023/02/12 05:18:53;;;;;;;;;36.25;35.50;;;;;;;;5037997;28;11500;-82
2023/02/12 05:21:20;;;;;;;;;48.00;39.75;;;;;;;;5039793;28;11540;-81
2023/02/12 05:23:49;;;;;;;;;35.25;34.75;;;;;;;;5035849;28;11579;-82
2023/02/12 05:26:18;;;;;;;;;38.25;37.00;;;;;;;;5038683;28;11469;-82
2023/02/12 05:28:46;;;;;;;;;27.00;27.00;;;;;;;;5038472;28;11478;-82
2023/02/12 05:31:15;;;;;;;;;46.25;38.75;;;;;;;;5036434;28;11420;-82
2023/02/12 05:33:43;;;;;;;;;44.75;35.75;;;;;;;;5039501;28;11566;-81
2023/02/12 05:36:12;;;;;;;;;43.50;38.00;;;;;;;;5038088;28;11434;-82
2023/02/12 05:38:40;;;;;;;;;41.75;36.75;;;;;;;;5040046;28;11512;-82
2023/02/12 05:41:10;;;;;;;;;41.50;34.75;;;;;;;;5037780;28;11602;-81
2023/02/12 05:43:38;;;;;;;;;38.75;36.00;;;;;;;;5043570;28;11646;-82
2023/02/12 05:46:07;;;;;;;;;37.25;35.25;;;;;;;;5039129;28;11507;-82
2023/02/12 05:48:35;;;;;;;;;45.25;37.25;;;;;;;;5040308;28;11521;-82
2023/02/12 05:51:03;;;;;;;;;37.00;35.00;;;;;;;;5039563;28;11465;-81
2023/02/12 05:53:31;;;;;;;;;44.50;39.50;;;;;;;;5042966;28;11582;-81
2023/02/12 05:56:12;;;;;;;;;38.25;33.50;;;;;;;;5042077;28;11524;-81
2023/02/12 05:58:41;;;;;;;;;44.75;39.75;;;;;;;;5037956;28;11466;-82
2023/02/12 06:01:14;;;;;;;;;40.25;37.25;;;;;;;;5039974;28;11355;-82
2023/02/12 06:03:41;;;;;;;;;40.00;36.50;;;;;;;;5040756;28;11512;-82
2023/02/12 06:06:09;;;;;;;;;39.00;36.25;;;;;;;;5038211;28;11530;-81
2023/02/12 06:08:36;;;;;;;;;36.50;34.50;;;;;;;;5044939;28;11692;-81
2023/02/12 06:11:06;;;;;;;;;45.50;38.00;;;;;;;;5041410;28;11527;-80
2023/02/12 06:13:34;;;;;;;;;44.00;38.50;;;;;;;;5039212;28;11579;-81
2023/02/12 06:16:02;;;;;;;;;46.50;39.00;;;;;;;;5046352;28;11500;-80
2023/02/12 06:18:30;;;;;;;;;38.00;32.00;;;;;;;;5043077;28;11516;-80
2023/02/12 06:20:58;;;;;;;;;38.75;37.50;;;;;;;;5043923;28;11493;-82
2023/02/12 06:23:25;;;;;;;;;45.75;39.50;;;;;;;;5040295;28;11497;-81
2023/02/12 06:25:57;;;;;;;;;42.50;39.25;;;;;;;;5044169;28;11532;-82
2023/02/12 06:28:24;;;;;;;;;48.50;38.75;;;;;;;;5041185;28;11577;-80
2023/02/12 06:30:53;;;;;;;;;40.50;34.25;;;;;;;;5041122;28;11550;-81
2023/02/12 06:33:20;;;;;;;;;41.50;35.75;;;;;;;;5041823;28;13578;-81
2023/02/12 06:35:47;;;;;;;;;42.25;38.50;;;;;;;;5041405;28;11644;-81
2023/02/12 06:38:14;;;;;;;;;41.00;37.25;;;;;;;;5048523;28;12477;-82
2023/02/12 06:40:42;;;;;;;;;52.50;42.75;;;;;;;;5042620;28;11587;-81
2023/02/12 06:43:09;;;;;;;;;47.00;40.75;;;;;;;;5037751;28;11556;-80
2023/02/12 06:45:36;;;;;;;;;40.00;35.75;;;;;;;;5042363;28;12016;-81
2023/02/12 06:48:06;;;;;;;;;42.00;37.50;;;;;;;;5039033;28;12021;-81
2023/02/12 06:50:34;;;;;;;;;44.75;39.00;;;;;;;;5043889;28;11528;-81
2023/02/12 06:53:01;;;;;;;;;43.00;33.25;;;;;;;;5027276;28;11496;-82
2023/02/12 06:55:28;;;;;;;;;42.25;39.00;;;;;;;;5040359;28;11539;-82
2023/02/12 06:57:55;;;;;;;;;42.25;38.00;;;;;;;;5040486;28;11621;-81
2023/02/12 07:00:23;;;;;;;;;41.75;38.00;;;;;;;;5038643;28;12277;-81
2023/02/12 07:02:54;;;;;;;;;49.50;43.00;;;;;;;;5042490;28;11638;-81
2023/02/12 07:05:23;;;;;;;;;46.75;38.50;;;;;;;;5041832;28;11697;-82
2023/02/12 07:07:51;;;;;;;;;44.50;38.50;;;;;;;;5046471;28;11526;-81
2023/02/12 07:10:18;;;;;;;;;45.75;39.00;;;;;;;;5042681;28;11485;-80
2023/02/12 07:12:46;;;;;;;;;47.75;39.25;;;;;;;;5044569;28;11654;-81
2023/02/12 07:15:14;;;;;;;;;51.00;38.75;;;;;;;;5043929;28;11582;-81
2023/02/12 07:17:41;;;;;;;;;42.50;39.25;;;;;;;;5041635;28;11554;-80
2023/02/12 07:20:09;;;;;;;;;40.75;38.00;;;;;;;;5041574;28;11521;-81
2023/02/12 07:22:38;;;;;;;;;47.50;39.75;;;;;;;;5049107;28;11529;-80
2023/02/12 07:25:05;;;;;;;;;50.50;38.25;;;;;;;;5049248;28;11610;-82
2023/02/12 07:27:35;;;;;;;;;49.25;39.00;;;;;;;;5046113;28;11571;-80
2023/02/12 07:30:02;;;;;;;;;54.25;43.00;;;;;;;;5041015;28;12416;-80
2023/02/12 07:32:31;;;;;;;;;44.75;38.75;;;;;;;;5041970;28;11601;-81
2023/02/12 07:34:58;;;;;;;;;47.00;37.25;;;;;;;;5045324;28;11669;-72
2023/02/12 07:40:11;;;;;;;;;47.25;38.25;;;;;;;;5048727;28;11628;-73
2023/02/12 07:42:39;;;;;;;;;49.50;39.00;;;;;;;;5039659;28;11654;-73
2023/02/12 07:45:07;;;;;;;;;39.75;37.00;;;;;;;;5041191;28;12792;-73
2023/02/12 07:47:37;;;;;;;;;49.25;41.00;;;;;;;;5045244;28;11600;-73
2023/02/12 07:50:06;;;;;;;;;44.25;38.25;;;;;;;;5043693;28;11518;-73
2023/02/12 07:52:33;;;;;;;;;48.25;40.50;;;;;;;;5046999;28;11548;-74
2023/02/12 07:55:01;;;;;;;;;52.75;39.75;;;;;;;;5041905;28;11478;-72
2023/02/12 07:57:30;;;;;;;;;47.50;41.50;;;;;;;;5041741;28;11551;-73
2023/02/12 07:59:57;;;;;;;;;47.00;39.00;;;;;;;;5044293;28;11625;-73
2023/02/12 08:02:24;;;;;;;;;52.50;43.00;;;;;;;;5042704;28;12321;-73
2023/02/12 08:04:56;;;;;;;;;46.25;41.25;;;;;;;;5042885;28;11504;-74
2023/02/12 08:07:23;;;;;;;;;54.75;45.00;;;;;;;;5044182;28;11639;-72
2023/02/12 08:09:51;;;;;;;;;53.25;44.50;;;;;;;;5044550;28;11490;-72
2023/02/12 08:12:18;;;;;;;;;27.75;27.75;;;;;;;;5044171;28;11613;-72
2023/02/12 08:14:47;;;;;;;;;51.25;40.00;;;;;;;;5041211;28;11547;-73
2023/02/12 08:17:14;;;;;;;;;41.25;37.00;;;;;;;;5044935;28;11562;-72
2023/02/12 08:19:41;;;;;;;;;43.00;38.50;;;;;;;;5045739;28;11553;-73
2023/02/12 08:22:09;;;;;;;;;51.25;41.50;;;;;;;;5044970;28;11555;-72
2023/02/12 08:24:36;;;;;;;;;47.50;39.25;;;;;;;;5047235;28;11479;-73
2023/02/12 08:27:03;;;;;;;;;49.25;42.25;;;;;;;;5046878;28;11538;-72
2023/02/12 08:29:31;;;;;;;;;51.75;40.75;;;;;;;;5041123;28;11533;-72
2023/02/12 08:32:01;;;;;;;;;48.75;41.50;;;;;;;;5044914;28;11515;-74
2023/02/12 08:34:29;;;;;;;;;51.50;38.00;;;;;;;;5046942;28;11553;-72
2023/02/12 08:36:57;;;;;;;;;45.75;38.25;;;;;;;;5048078;28;11543;-73
2023/02/12 08:39:26;;;;;;;;;54.00;43.25;;;;;;;;5047166;28;11531;-73
2023/02/12 08:41:55;;;;;;;;;45.00;38.50;;;;;;;;5043595;28;12442;-75
2023/02/12 08:44:22;;;;;;;;;50.75;38.75;;;;;;;;5047288;28;11518;-73
2023/02/12 08:46:51;;;;;;;;;47.00;36.75;;;;;;;;5041411;28;11544;-75
2023/02/12 08:49:24;;;;;;;;;54.25;41.50;;;;;;;;5043412;28;11490;-74
2023/02/12 08:51:56;;;;;;;;;55.75;44.25;;;;;;;;5044695;28;11596;-73
2023/02/12 08:54:25;;;;;;;;;45.00;36.75;;;;;;;;5049327;28;11552;-74
2023/02/12 08:56:55;;;;;;;;;56.50;43.00;;;;;;;;5042887;28;11650;-74
2023/02/12 08:59:22;;;;;;;;;42.25;37.75;;;;;;;;5043516;28;11529;-72
2023/02/12 09:01:51;;;;;;;;;55.00;45.00;;;;;;;;5045269;28;11579;-75
2023/02/12 09:04:22;;;;;;;;;53.50;45.75;;;;;;;;5051031;28;11586;-75
2023/02/12 09:06:50;;;;;;;;;53.00;43.00;;;;;;;;5050325;28;12101;-76
2023/02/12 09:09:18;;;;;;;;;52.00;41.75;;;;;;;;5045865;28;11577;-75
2023/02/12 09:11:46;;;;;;;;;52.75;43.25;;;;;;;;5047206;28;11545;-73
2023/02/12 09:14:16;;;;;;;;;51.00;41.25;;;;;;;;5045730;28;11536;-73
2023/02/12 09:16:43;;;;;;;;;47.00;42.00;;;;;;;;5041703;28;11512;-75
2023/02/12 09:19:13;;;;;;;;;55.00;41.25;;;;;;;;5047706;28;11511;-74
2023/02/12 09:21:45;;;;;;;;;47.50;39.25;;;;;;;;5040631;28;11643;-73
2023/02/12 09:24:12;;;;;;;;;55.25;43.25;;;;;;;;5046062;28;11677;-75
2023/02/12 09:26:40;;;;;;;;;56.50;45.50;;;;;;;;5049851;28;11644;-74
2023/02/12 09:29:07;;;;;;;;;56.00;47.50;;;;;;;;5044184;28;11571;-74
2023/02/12 09:31:35;;;;;;;;;51.75;41.50;;;;;;;;5045523;28;11435;-74
2023/02/12 09:34:04;;;;;;;;;52.75;43.75;;;;;;;;5052223;28;11652;-75
2023/02/12 09:36:32;;;;;;;;;54.00;44.50;;;;;;;;5051507;28;11526;-74
2023/02/12 09:39:02;;;;;;;;;51.25;41.75;;;;;;;;5048290;28;11541;-74
2023/02/12 09:42:20;;;;;;;;;37.25;34.00;;;;;;;;5048031;28;11520;-74
2023/02/12 09:44:52;;;;;;;;;58.25;46.25;;;;;;;;5017795;28;11440;-72
2023/02/12 09:47:28;;;;;;;;;50.00;41.75;;;;;;;;5021557;28;11632;-72
2023/02/12 09:50:17;;;;;;;;;47.25;34.00;;;;;;;;5038894;28;12276;-71
2023/02/12 09:52:44;;;;;;;;;54.00;43.75;;;;;;;;5046669;28;11743;-71
2023/02/12 09:55:16;;;;;;;;;57.50;45.25;;;;;;;;5047335;28;11555;-71
2023/02/12 09:57:44;;;;;;;;;50.00;39.25;;;;;;;;5052829;28;11523;-70
2023/02/12 10:00:16;;;;;;;;;40.00;38.00;;;;;;;;5051240;28;11586;-71
2023/02/12 10:02:43;;;;;;;;;48.50;41.00;;;;;;;;5046824;28;11488;-71
2023/02/12 10:05:17;;;;;;;;;51.25;42.00;;;;;;;;5044620;28;11492;-71
2023/02/12 10:08:07;;;;;;;;;49.50;42.75;;;;;;;;5045486;28;11435;-71
2023/02/12 10:10:44;;;;;;;;;39.00;35.25;;;;;;;;5045796;28;12248;-71
2023/02/12 10:13:22;;;;;;;;;46.50;38.00;;;;;;;;5051898;28;11587;-71
2023/02/12 10:15:55;;;;;;;;;36.00;34.25;;;;;;;;5053225;28;11587;-71
2023/02/12 10:18:46;;;;;;;;;45.50;38.00;;;;;;;;5052916;28;11618;-71
2023/02/12 10:21:24;;;;;;;;;40.00;36.50;;;;;;;;5049882;28;11672;-72
2023/02/12 10:24:25;;;;;;;;;43.75;36.25;;;;;;;;5047403;28;11622;-72
2023/02/12 10:26:57;;;;;;;;;33.25;31.25;;;;;;;;5030302;28;11585;-72
2023/02/12 10:29:26;;;;;;;;;34.25;32.25;;;;;;;;5044794;28;11792;-72
2023/02/12 10:31:57;;;;;;;;;35.75;28.00;;;;;;;;5056683;28;11235;-74
2023/02/12 10:34:28;;;;;;;;;30.50;27.25;;;;;;;;5046920;28;11498;-70
2023/02/12 10:37:01;;;;;;;;;34.75;34.50;;;;;;;;5049515;28;11192;-70
2023/02/12 10:39:33;;;;;;;;;43.25;37.00;;;;;;;;5044989;28;11210;-71
2023/02/12 10:42:15;;;;;;;;;33.75;30.50;;;;;;;;5049839;28;12103;-71
2023/02/12 10:44:42;;;;;;;;;27.00;27.00;;;;;;;;5047961;28;11161;-71
2023/02/12 10:47:16;;;;;;;;;27.75;27.00;;;;;;;;5052552;28;11169;-70
2023/02/12 10:49:43;;;;;;;;;28.50;26.00;;;;;;;;5045410;28;11026;-72
2023/02/12 10:52:15;;;;;;;;;21.50;21.50;;;;;;;;5048278;28;10915;-72
2023/02/12 10:54:43;;;;;;;;;24.00;22.25;;;;;;;;5048623;28;10860;-74
2023/02/12 10:57:17;;;;;;;;;31.75;30.75;;;;;;;;5046220;28;10976;-71
2023/02/12 10:59:46;;;;;;;;;20.50;17.50;;;;;;;;5041400;28;11059;-72
2023/02/12 11:02:25;;;;;;;;;22.50;19.50;;;;;;;;5043529;28;10817;-72
2023/02/12 11:04:54;;;;;;;;;29.00;26.75;;;;;;;;5043186;28;11492;-74
2023/02/12 11:07:22;;;;;;;;;25.50;23.50;;;;;;;;5041888;28;10904;-71
2023/02/12 11:09:51;;;;;;;;;25.50;23.25;;;;;;;;5046160;28;10806;-73
2023/02/12 11:12:28;;;;;;;;;32.00;23.50;;;;;;;;5042867;28;10799;-71
2023/02/12 11:14:57;;;;;;;;;21.50;19.25;;;;;;;;5044069;28;10895;-72
2023/02/12 11:17:28;;;;;;;;;25.50;22.75;;;;;;;;5041293;28;10856;-75
2023/02/12 11:20:08;;;;;;;;;25.75;22.50;;;;;;;;5042272;28;11105;-73
2023/02/12 11:22:36;;;;;;;;;15.25;11.25;;;;;;;;5040822;28;10895;-73
2023/02/12 11:25:15;;;;;;;;;15.00;15.00;;;;;;;;5038660;28;10708;-73
2023/02/12 11:27:44;;;;;;;;;17.75;17.25;;;;;;;;5040867;28;10731;-74
2023/02/12 11:30:16;;;;;;;;;11.00;11.00;;;;;;;;5038583;28;10793;-74
2023/02/12 11:32:48;;;;;;;;;13.75;13.75;;;;;;;;5041291;28;10596;-78
2023/02/12 11:35:23;;;;;;;;;17.75;16.25;;;;;;;;5040339;28;10589;-75
2023/02/12 11:37:52;;;;;;;;;29.25;27.25;;;;;;;;5043889;28;10865;-74
2023/02/12 11:40:22;;;;;;;;;16.50;16.25;;;;;;;;5040627;28;11065;-76
2023/02/12 11:42:54;;;;;;;;;17.75;17.25;;;;;;;;5045008;28;10791;-74
2023/02/12 11:45:31;;;;;;;;;21.75;18.00;;;;;;;;5041992;28;10716;-73
2023/02/12 11:47:59;;;;;;;;;16.50;15.75;;;;;;;;5045286;28;10706;-73
2023/02/12 11:50:28;;;;;;;;;19.00;18.00;;;;;;;;5042830;28;10410;-72
2023/02/12 11:52:59;;;;;;;;;18.00;16.25;;;;;;;;5042505;28;10585;-73
2023/02/12 11:55:28;;;;;;;;;15.25;13.75;;;;;;;;5043999;28;10588;-74
2023/02/12 11:58:03;;;;;;;;;17.50;14.50;;;;;;;;5044319;28;10582;-73
2023/02/12 12:00:35;;;;;;;;;20.75;16.00;;;;;;;;5038463;28;10396;-73
2023/02/12 12:03:12;;;;;;;;;24.00;19.25;;;;;;;;5036422;28;10499;-71
2023/02/12 12:05:44;;;;;;;;;21.00;16.75;;;;;;;;5039815;28;10673;-73
2023/02/12 12:08:18;;;;;;;;;20.00;18.00;;;;;;;;5038681;28;10427;-72
2023/02/12 12:10:50;;;;;;;;;26.00;22.25;;;;;;;;5041903;28;10505;-71
2023/02/12 12:13:22;;;;;;;;;17.50;17.50;;;;;;;;5042627;28;10786;-71
2023/02/12 12:21:31;;;;;;;;;22.00;20.00;;;;;;;;5038937;28;10169;-71
2023/02/12 12:24:03;;;;;;;;;13.50;10.50;;;;;;;;5042222;28;10090;-73
2023/02/12 12:26:33;;;;;;;;;16.25;14.50;;;;;;;;5040478;28;9974;-70
2023/02/12 12:29:06;;;;;;;;;8.75;8.75;;;;;;;;5040696;28;9875;-71
2023/02/12 12:31:36;;;;;;;;;16.75;15.75;;;;;;;;5039205;28;9802;-72
2023/02/12 12:34:07;;;;;;;;;21.00;18.50;;;;;;;;5037058;28;9914;-71
2023/02/12 12:37:04;;;;;;;;;11.00;11.00;;;;;;;;5037895;28;10417;-71
2023/02/12 12:39:36;;;;;;;;;16.25;16.25;;;;;;;;5043402;28;9918;-71
2023/02/12 12:42:30;;;;;;;;;17.75;17.00;;;;;;;;5039692;28;10299;-71
2023/02/12 12:45:12;;;;;;;;;17.50;16.50;;;;;;;;5040247;28;10287;-72
2023/02/12 12:47:49;;;;;;;;;15.25;13.25;;;;;;;;5043755;28;10264;-71
2023/02/12 12:50:32;;;;;;;;;15.50;15.50;;;;;;;;5039072;28;10461;-72
2023/02/12 12:53:08;;;;;;;;;12.75;12.00;;;;;;;;5042395;28;10017;-72
2023/02/12 12:56:01;;;;;;;;;12.50;12.50;;;;;;;;5041154;28;9856;-71
2023/02/12 12:58:39;;;;;;;;;15.75;15.75;;;;;;;;5039917;28;9667;-72
2023/02/12 13:01:23;;;;;;;;;11.67;11.67;;;;;;;;5037959;28;9388;-72
2023/02/12 13:04:28;;;;;;;;;11.33;11.33;;;;;;;;5036281;28;9271;-72
2023/02/12 13:07:02;;;;;;;;;9.50;9.25;;;;;;;;5031787;28;9235;-72
2023/02/12 13:09:54;;;;;;;;;12.75;11.75;;;;;;;;5037161;28;8882;-72
2023/02/12 13:13:09;;;;;;;;;11.50;11.50;;;;;;;;5040071;28;9613;-72
2023/02/12 13:15:41;;;;;;;;;12.25;12.25;;;;;;;;5005034;28;8886;-72
2023/02/12 13:18:18;;;;;;;;;13.00;12.75;;;;;;;;5037126;28;8866;-72
2023/02/12 13:20:51;;;;;;;;;11.75;11.75;;;;;;;;5038585;28;8808;-71
2023/02/12 13:23:25;;;;;;;;;10.00;10.00;;;;;;;;5039201;28;8856;-72
2023/02/12 13:25:59;;;;;;;;;10.50;10.50;;;;;;;;5044714;28;8842;-71
2023/02/12 13:28:34;;;;;;;;;14.00;10.00;;;;;;;;5045901;28;8975;-72
2023/02/12 13:31:03;;;;;;;;;12.75;10.00;;;;;;;;5043147;28;8797;-72
2023/02/12 13:33:39;;;;;;;;;11.75;10.75;;;;;;;;5040398;28;8824;-72
2023/02/12 13:36:08;;;;;;;;;9.25;9.25;;;;;;;;5038483;28;8859;-72
2023/02/12 13:38:40;;;;;;;;;17.50;13.75;;;;;;;;5040853;28;8858;-72
2023/02/12 13:41:09;;;;;;;;;13.00;13.00;;;;;;;;5046894;28;8862;-72
2023/02/12 13:43:47;;;;;;;;;9.25;9.25;;;;;;;;5045250;28;8842;-72
2023/02/12 13:46:20;;;;;;;;;11.75;10.00;;;;;;;;5046174;28;8835;-72
2023/02/12 13:48:55;;;;;;;;;6.25;6.25;;;;;;;;5046166;28;8831;-72
2023/02/12 13:51:29;;;;;;;;;8.75;8.75;;;;;;;;5039059;28;8875;-72
2023/02/12 13:54:11;;;;;;;;;9.25;9.25;;;;;;;;5038689;28;10237;-72
2023/02/12 13:56:43;;;;;;;;;12.50;12.50;;;;;;;;5042989;28;8836;-72
2023/02/12 13:59:38;;;;;;;;;10.50;9.50;;;;;;;;5040496;28;8870;-72
2023/02/12 14:02:14;;;;;;;;;9.50;9.50;;;;;;;;5038402;28;8789;-72
2023/02/12 14:04:45;;;;;;;;;11.50;10.75;;;;;;;;5044464;28;8830;-72
2023/02/12 14:07:14;;;;;;;;;7.75;7.75;;;;;;;;5042776;28;8993;-72
2023/02/12 14:09:43;;;;;;;;;10.50;10.25;;;;;;;;5041372;28;8883;-71
2023/02/12 14:12:14;;;;;;;;;9.75;9.75;;;;;;;;5043789;28;8836;-72
2023/02/12 14:14:44;;;;;;;;;11.75;9.50;;;;;;;;5044868;28;8842;-72
2023/02/12 14:17:50;;;;;;;;;9.50;9.50;;;;;;;;5037421;28;8862;-71
2023/02/12 14:20:28;;;;;;;;;7.75;7.75;;;;;;;;5041514;28;8842;-71
2023/02/12 14:23:16;;;;;;;;;11.00;9.25;;;;;;;;5040260;28;8847;-72
2023/02/12 14:25:45;;;;;;;;;14.00;14.00;;;;;;;;5044369;28;8859;-70
2023/02/12 14:28:26;;;;;;;;;10.50;10.50;;;;;;;;5043008;28;8927;-71
2023/02/12 14:31:21;;;;;;;;;13.50;12.50;;;;;;;;5040738;28;8857;-70
2023/02/12 14:33:49;;;;;;;;;10.25;10.25;;;;;;;;5041082;28;8836;-71
2023/02/12 14:36:20;;;;;;;;;13.75;13.00;;;;;;;;5043371;28;9008;-69
2023/02/12 14:39:03;;;;;;;;;13.50;11.75;;;;;;;;5041034;28;8842;-69
2023/02/12 14:41:41;;;;;;;;;11.00;11.00;;;;;;;;5038456;28;8879;-69
2023/02/12 14:44:45;;;;;;;;;8.50;8.50;;;;;;;;5040735;28;8850;-69
2023/02/12 14:47:16;;;;;;;;;13.25;12.25;;;;;;;;4993656;28;8894;-69
2023/02/12 14:49:47;;;;;;;;;15.50;13.00;;;;;;;;4992919;28;8840;-69
2023/02/12 14:52:19;;;;;;;;;11.25;9.00;;;;;;;;5013187;28;8865;-69
2023/02/12 14:54:48;;;;;;;;;12.25;12.25;;;;;;;;5038559;28;8856;-69
2023/02/12 14:57:22;;;;;;;;;11.25;9.25;;;;;;;;5043094;28;8871;-69
2023/02/12 14:59:51;;;;;;;;;11.50;10.00;;;;;;;;5040131;28;8881;-69